Hondo, Texas
Current Conditions -  °F | °C
As of 4:51 AM on Thursday 18 Dec 2014 (Local Time) from KHDO Reporting Station
Moderate Fog Moderate Fog  
Wind Chill: 58°   Ceiling: 200
Heat Index: 58°   Visibility: 0.25mi
Dew Point: 58°   Wind: 6mph
Humidity: 100%   Direction: 40°NE
Pressure: 30.06"   Gusts: NA
Location:  29.35°N, 99.14°W
Report Text: KHDO 181051Z AUTO 04005KT 1/4SM FG VV002 14/14 A3006 RMK AO2 SLP171 T01440144
Loading
Personal Weather Stations






























Interactive Weather Map New forecast layout! Learn more

10-Day Weather Forecast

Advertisements
Track Severe Weather on mobile